LKY13 RKSS-RKPC
Flight info
| Callsign | LKY13 |
|---|---|
| Flight time | 0h 57m |
| Altitude | 36000 |
| Route | BULTI2Q BULTI Y711 DOTOL DOTOL2P |
| Aircraft | B736/M-SDE2E3FGHIRWXY/LB1 |
Departure
| Time | 2026-04-29 23:16 |
|---|---|
| Airport | Gimpo International Airport (RKSS) |
Arrival
| Time | 2026-04-30 00:13 |
|---|---|
| Airport | Jeju International Airport (RKPC) |
| Time | Latitude | Longitude | Altitude | Speed | Heading |
|---|---|---|---|---|---|
| 2026-04-29 23:06 | 37.55039 | 126.80897 | 50 ft | 0 kts | 44° |
| 2026-04-29 23:09 | 37.55034 | 126.80892 | 47 ft | 2 kts | 44° |
| 2026-04-29 23:09 | 37.55023 | 126.80877 | 46 ft | 2 kts | 44° |
| 2026-04-29 23:09 | 37.55011 | 126.80863 | 48 ft | 2 kts | 44° |
| 2026-04-29 23:10 | 37.54999 | 126.80849 | 48 ft | 2 kts | 44° |
| 2026-04-29 23:10 | 37.54993 | 126.80841 | 47 ft | 0 kts | 44° |
| 2026-04-29 23:13 | 37.54994 | 126.80841 | 47 ft | 1 kts | 45° |
| 2026-04-29 23:13 | 37.54992 | 126.80852 | 48 ft | 2 kts | 109° |
| 2026-04-29 23:13 | 37.54977 | 126.80858 | 48 ft | 5 kts | 166° |
| 2026-04-29 23:14 | 37.54931 | 126.80851 | 50 ft | 9 kts | 192° |
| 2026-04-29 23:14 | 37.54867 | 126.80802 | 50 ft | 13 kts | 228° |
| 2026-04-29 23:14 | 37.54801 | 126.80697 | 51 ft | 14 kts | 255° |
| 2026-04-29 23:14 | 37.54819 | 126.80655 | 49 ft | 1 kts | 320° |
| 2026-04-29 23:15 | 37.54826 | 126.80646 | 51 ft | 2 kts | 318° |
| 2026-04-29 23:15 | 37.54862 | 126.80605 | 49 ft | 17 kts | 315° |
| 2026-04-29 23:15 | 37.55037 | 126.80375 | 50 ft | 70 kts | 316° |
| 2026-04-29 23:15 | 37.55578 | 126.79695 | 69 ft | 147 kts | 315° |
| 2026-04-29 23:16 | 37.56339 | 126.78746 | 848 ft | 150 kts | 315° |
| 2026-04-29 23:16 | 37.57080 | 126.77792 | 1844 ft | 152 kts | 316° |
| 2026-04-29 23:16 | 37.57865 | 126.76767 | 2550 ft | 177 kts | 314° |
| 2026-04-29 23:16 | 37.58732 | 126.75563 | 3260 ft | 196 kts | 313° |
| 2026-04-29 23:17 | 37.59732 | 126.74202 | 3608 ft | 229 kts | 313° |
| 2026-04-29 23:17 | 37.60816 | 126.72603 | 4132 ft | 245 kts | 301° |
| 2026-04-29 23:17 | 37.61503 | 126.70622 | 4821 ft | 259 kts | 287° |
| 2026-04-29 23:17 | 37.61859 | 126.68394 | 5115 ft | 264 kts | 271° |
| 2026-04-29 23:18 | 37.61510 | 126.66107 | 5016 ft | 273 kts | 243° |
| 2026-04-29 23:18 | 37.60344 | 126.64278 | 5131 ft | 261 kts | 223° |
| 2026-04-29 23:18 | 37.58973 | 126.62718 | 4950 ft | 269 kts | 221° |
| 2026-04-29 23:18 | 37.57625 | 126.61127 | 5037 ft | 264 kts | 224° |
| 2026-04-29 23:19 | 37.56172 | 126.59744 | 5098 ft | 263 kts | 203° |
| 2026-04-29 23:19 | 37.54383 | 126.59219 | 5318 ft | 270 kts | 182° |
| 2026-04-29 23:19 | 37.52514 | 126.59172 | 6483 ft | 268 kts | 181° |
| 2026-04-29 23:19 | 37.50647 | 126.59110 | 7577 ft | 272 kts | 181° |
| 2026-04-29 23:20 | 37.48753 | 126.59036 | 7965 ft | 273 kts | 181° |
| 2026-04-29 23:20 | 37.46863 | 126.58957 | 8202 ft | 279 kts | 181° |
| 2026-04-29 23:20 | 37.44911 | 126.58872 | 8867 ft | 283 kts | 180° |
| 2026-04-29 23:20 | 37.42931 | 126.58785 | 9099 ft | 285 kts | 180° |
| 2026-04-29 23:21 | 37.40953 | 126.58697 | 9098 ft | 284 kts | 180° |
| 2026-04-29 23:21 | 37.38988 | 126.58611 | 9103 ft | 281 kts | 180° |
| 2026-04-29 23:21 | 37.37042 | 126.58618 | 9100 ft | 278 kts | 169° |
| 2026-04-29 23:21 | 37.35173 | 126.59323 | 9445 ft | 284 kts | 158° |
| 2026-04-29 23:22 | 37.33315 | 126.60175 | 10513 ft | 284 kts | 159° |
| 2026-04-29 23:22 | 37.31375 | 126.61037 | 10959 ft | 308 kts | 160° |
| 2026-04-29 23:22 | 37.29285 | 126.61950 | 11101 ft | 339 kts | 160° |
| 2026-04-29 23:22 | 37.26968 | 126.63003 | 11120 ft | 369 kts | 155° |
| 2026-04-29 23:23 | 37.24706 | 126.64664 | 11606 ft | 382 kts | 146° |
| 2026-04-29 23:23 | 37.22492 | 126.66542 | 12415 ft | 385 kts | 146° |
| 2026-04-29 23:23 | 37.20262 | 126.68437 | 13224 ft | 389 kts | 147° |
| 2026-04-29 23:23 | 37.17999 | 126.70338 | 13950 ft | 394 kts | 147° |
| 2026-04-29 23:24 | 37.15700 | 126.72244 | 14523 ft | 400 kts | 148° |
| 2026-04-29 23:24 | 37.13354 | 126.74172 | 15095 ft | 405 kts | 148° |
| 2026-04-29 23:24 | 37.11014 | 126.76087 | 15662 ft | 410 kts | 149° |
| 2026-04-29 23:24 | 37.08611 | 126.78049 | 16066 ft | 413 kts | 149° |
| 2026-04-29 23:25 | 37.06198 | 126.80004 | 16091 ft | 413 kts | 151° |
| 2026-04-29 23:25 | 37.03559 | 126.81375 | 16103 ft | 410 kts | 168° |
| 2026-04-29 23:25 | 37.00745 | 126.81721 | 16098 ft | 407 kts | 181° |
| 2026-04-29 23:25 | 36.97909 | 126.81745 | 16083 ft | 408 kts | 181° |
| 2026-04-29 23:26 | 36.95069 | 126.81779 | 16078 ft | 408 kts | 181° |
| 2026-04-29 23:26 | 36.92230 | 126.81848 | 16077 ft | 408 kts | 180° |
| 2026-04-29 23:26 | 36.89392 | 126.81936 | 16081 ft | 408 kts | 180° |
| 2026-04-29 23:26 | 36.86600 | 126.82031 | 16078 ft | 408 kts | 180° |
| 2026-04-29 23:27 | 36.83757 | 126.82126 | 16086 ft | 408 kts | 180° |
| 2026-04-29 23:27 | 36.80923 | 126.82219 | 16081 ft | 408 kts | 180° |
| 2026-04-29 23:27 | 36.78083 | 126.82312 | 16079 ft | 408 kts | 180° |
| 2026-04-29 23:27 | 36.75250 | 126.82404 | 16085 ft | 407 kts | 180° |
| 2026-04-29 23:28 | 36.72418 | 126.82496 | 16089 ft | 407 kts | 180° |
| 2026-04-29 23:28 | 36.69563 | 126.82594 | 16393 ft | 413 kts | 180° |
| 2026-04-29 23:28 | 36.66696 | 126.82697 | 17050 ft | 414 kts | 180° |
| 2026-04-29 23:28 | 36.63814 | 126.82803 | 17683 ft | 415 kts | 180° |
| 2026-04-29 23:29 | 36.60949 | 126.82907 | 18246 ft | 419 kts | 180° |
| 2026-04-29 23:29 | 36.58027 | 126.83012 | 18721 ft | 422 kts | 181° |
| 2026-04-29 23:29 | 36.55081 | 126.83118 | 19213 ft | 424 kts | 181° |
| 2026-04-29 23:29 | 36.52125 | 126.83235 | 19720 ft | 426 kts | 181° |
| 2026-04-29 23:30 | 36.49158 | 126.83360 | 20215 ft | 428 kts | 181° |
| 2026-04-29 23:30 | 36.46177 | 126.83486 | 20682 ft | 430 kts | 181° |
| 2026-04-29 23:30 | 36.43176 | 126.83611 | 21150 ft | 433 kts | 182° |
| 2026-04-29 23:30 | 36.40159 | 126.83735 | 21606 ft | 435 kts | 182° |
| 2026-04-29 23:31 | 36.37135 | 126.83738 | 22035 ft | 434 kts | 187° |
| 2026-04-29 23:31 | 36.34158 | 126.83439 | 22458 ft | 435 kts | 189° |
| 2026-04-29 23:31 | 36.31142 | 126.83062 | 22891 ft | 436 kts | 190° |
| 2026-04-29 23:31 | 36.28124 | 126.82678 | 23318 ft | 438 kts | 190° |
| 2026-04-29 23:32 | 36.25081 | 126.82310 | 23701 ft | 440 kts | 190° |
| 2026-04-29 23:32 | 36.22029 | 126.81960 | 24016 ft | 442 kts | 190° |
| 2026-04-29 23:32 | 36.18966 | 126.81622 | 24355 ft | 442 kts | 190° |
| 2026-04-29 23:32 | 36.15899 | 126.81286 | 24698 ft | 443 kts | 190° |
| 2026-04-29 23:33 | 36.12830 | 126.80951 | 25032 ft | 444 kts | 190° |
| 2026-04-29 23:33 | 36.09789 | 126.80619 | 25370 ft | 444 kts | 191° |
| 2026-04-29 23:33 | 36.06711 | 126.80284 | 25692 ft | 445 kts | 191° |
| 2026-04-29 23:33 | 36.03620 | 126.79948 | 26004 ft | 446 kts | 191° |
| 2026-04-29 23:34 | 36.00530 | 126.79612 | 26286 ft | 447 kts | 191° |
| 2026-04-29 23:34 | 35.97436 | 126.79276 | 26615 ft | 446 kts | 191° |
| 2026-04-29 23:34 | 35.94356 | 126.78942 | 27029 ft | 443 kts | 191° |
| 2026-04-29 23:34 | 35.91303 | 126.78612 | 27503 ft | 439 kts | 191° |
| 2026-04-29 23:35 | 35.88273 | 126.78284 | 27980 ft | 436 kts | 191° |
| 2026-04-29 23:35 | 35.85253 | 126.77959 | 28442 ft | 434 kts | 191° |
| 2026-04-29 23:35 | 35.82290 | 126.77640 | 28909 ft | 432 kts | 192° |
| 2026-04-29 23:35 | 35.79307 | 126.77319 | 29417 ft | 429 kts | 192° |
| 2026-04-29 23:36 | 35.76336 | 126.76999 | 29946 ft | 427 kts | 192° |
| 2026-04-29 23:36 | 35.73389 | 126.76682 | 30446 ft | 424 kts | 192° |
| 2026-04-29 23:36 | 35.70457 | 126.76367 | 30918 ft | 421 kts | 192° |
| 2026-04-29 23:36 | 35.67546 | 126.76054 | 31415 ft | 418 kts | 192° |
| 2026-04-29 23:37 | 35.64655 | 126.75743 | 31882 ft | 416 kts | 193° |
| 2026-04-29 23:37 | 35.61772 | 126.75432 | 32084 ft | 416 kts | 193° |
| 2026-04-29 23:37 | 35.56062 | 126.74817 | 32108 ft | 416 kts | 193° |
| 2026-04-29 23:38 | 35.50288 | 126.74199 | 32116 ft | 415 kts | 193° |
| 2026-04-29 23:38 | 35.44536 | 126.73587 | 32111 ft | 416 kts | 193° |
| 2026-04-29 23:39 | 35.38760 | 126.72975 | 32099 ft | 416 kts | 193° |
| 2026-04-29 23:39 | 35.32991 | 126.72364 | 32098 ft | 416 kts | 193° |
| 2026-04-29 23:40 | 35.27262 | 126.71758 | 32096 ft | 416 kts | 193° |
| 2026-04-29 23:40 | 35.21498 | 126.71149 | 32103 ft | 416 kts | 193° |
| 2026-04-29 23:41 | 35.15732 | 126.70541 | 32096 ft | 416 kts | 193° |
| 2026-04-29 23:41 | 35.09997 | 126.69936 | 32099 ft | 416 kts | 193° |
| 2026-04-29 23:42 | 35.04225 | 126.69325 | 32099 ft | 416 kts | 193° |
| 2026-04-29 23:42 | 34.98453 | 126.68714 | 32094 ft | 417 kts | 193° |
| 2026-04-29 23:43 | 34.92675 | 126.68104 | 32105 ft | 417 kts | 193° |
| 2026-04-29 23:43 | 34.86885 | 126.67494 | 32100 ft | 417 kts | 193° |
| 2026-04-29 23:44 | 34.81145 | 126.66890 | 32097 ft | 417 kts | 193° |
| 2026-04-29 23:44 | 34.75326 | 126.66274 | 31050 ft | 424 kts | 192° |
| 2026-04-29 23:45 | 34.72394 | 126.65966 | 30162 ft | 422 kts | 192° |
| 2026-04-29 23:45 | 34.69457 | 126.65659 | 28967 ft | 424 kts | 192° |
| 2026-04-29 23:45 | 34.66514 | 126.65351 | 27801 ft | 425 kts | 192° |
| 2026-04-29 23:45 | 34.63577 | 126.65044 | 26680 ft | 425 kts | 192° |
| 2026-04-29 23:46 | 34.60667 | 126.64740 | 25679 ft | 423 kts | 191° |
| 2026-04-29 23:46 | 34.57745 | 126.64436 | 24753 ft | 420 kts | 191° |
| 2026-04-29 23:46 | 34.54852 | 126.64135 | 23901 ft | 415 kts | 191° |
| 2026-04-29 23:46 | 34.51982 | 126.63836 | 22954 ft | 411 kts | 191° |
| 2026-04-29 23:47 | 34.49151 | 126.63540 | 22064 ft | 406 kts | 191° |
| 2026-04-29 23:47 | 34.46350 | 126.63247 | 21290 ft | 400 kts | 191° |
| 2026-04-29 23:47 | 34.43589 | 126.62959 | 20470 ft | 397 kts | 191° |
| 2026-04-29 23:47 | 34.40848 | 126.62670 | 19698 ft | 396 kts | 191° |
| 2026-04-29 23:48 | 34.38095 | 126.62373 | 18895 ft | 398 kts | 190° |
| 2026-04-29 23:48 | 34.35328 | 126.62071 | 18060 ft | 404 kts | 190° |
| 2026-04-29 23:48 | 34.32548 | 126.61768 | 17210 ft | 406 kts | 189° |
| 2026-04-29 23:48 | 34.29743 | 126.61467 | 16395 ft | 402 kts | 189° |
| 2026-04-29 23:49 | 34.26974 | 126.61171 | 15615 ft | 396 kts | 189° |
| 2026-04-29 23:49 | 34.24263 | 126.60882 | 14884 ft | 391 kts | 188° |
| 2026-04-29 23:49 | 34.21546 | 126.60599 | 14116 ft | 387 kts | 188° |
| 2026-04-29 23:49 | 34.18878 | 126.60325 | 13299 ft | 384 kts | 188° |
| 2026-04-29 23:50 | 34.16277 | 126.60057 | 12515 ft | 379 kts | 188° |
| 2026-04-29 23:50 | 34.13615 | 126.59783 | 11695 ft | 376 kts | 188° |
| 2026-04-29 23:50 | 34.08544 | 126.59261 | 10874 ft | 353 kts | 188° |
| 2026-04-29 23:51 | 34.06163 | 126.59016 | 10710 ft | 336 kts | 188° |
| 2026-04-29 23:51 | 34.03874 | 126.58781 | 10569 ft | 322 kts | 188° |
| 2026-04-29 23:51 | 34.01694 | 126.58556 | 10435 ft | 309 kts | 189° |
| 2026-04-29 23:51 | 33.99668 | 126.57961 | 10299 ft | 292 kts | 205° |
| 2026-04-29 23:52 | 33.97962 | 126.56783 | 10191 ft | 277 kts | 219° |
| 2026-04-29 23:52 | 33.96499 | 126.55356 | 10084 ft | 266 kts | 221° |
| 2026-04-29 23:52 | 33.95115 | 126.53979 | 9918 ft | 258 kts | 221° |
| 2026-04-29 23:52 | 33.93730 | 126.52614 | 9591 ft | 257 kts | 221° |
| 2026-04-29 23:53 | 33.92345 | 126.51261 | 9280 ft | 255 kts | 220° |
| 2026-04-29 23:53 | 33.90971 | 126.49925 | 8980 ft | 254 kts | 220° |
| 2026-04-29 23:53 | 33.89597 | 126.48592 | 8754 ft | 255 kts | 220° |
| 2026-04-29 23:53 | 33.88204 | 126.47242 | 8521 ft | 260 kts | 220° |
| 2026-04-29 23:54 | 33.86784 | 126.45867 | 8280 ft | 264 kts | 220° |
| 2026-04-29 23:54 | 33.85343 | 126.44472 | 8040 ft | 266 kts | 219° |
| 2026-04-29 23:54 | 33.83922 | 126.43098 | 7787 ft | 266 kts | 219° |
| 2026-04-29 23:54 | 33.82486 | 126.41709 | 7539 ft | 264 kts | 219° |
| 2026-04-29 23:55 | 33.81058 | 126.40331 | 7287 ft | 262 kts | 219° |
| 2026-04-29 23:55 | 33.79646 | 126.38966 | 7086 ft | 260 kts | 219° |
| 2026-04-29 23:55 | 33.78227 | 126.37596 | 7039 ft | 263 kts | 219° |
| 2026-04-29 23:55 | 33.76794 | 126.36213 | 7013 ft | 263 kts | 219° |
| 2026-04-29 23:56 | 33.75373 | 126.34842 | 7007 ft | 260 kts | 219° |
| 2026-04-29 23:56 | 33.74011 | 126.33463 | 6981 ft | 251 kts | 228° |
| 2026-04-29 23:56 | 33.73212 | 126.31684 | 7006 ft | 239 kts | 255° |
| 2026-04-29 23:56 | 33.73090 | 126.29758 | 7007 ft | 234 kts | 275° |
| 2026-04-29 23:57 | 33.73319 | 126.27819 | 7015 ft | 236 kts | 279° |
| 2026-04-29 23:57 | 33.73601 | 126.25853 | 7032 ft | 241 kts | 279° |
| 2026-04-29 23:57 | 33.73885 | 126.23848 | 7011 ft | 246 kts | 279° |
| 2026-04-29 23:57 | 33.74071 | 126.21819 | 6990 ft | 244 kts | 266° |
| 2026-04-29 23:58 | 33.73840 | 126.19815 | 7007 ft | 241 kts | 260° |
| 2026-04-29 23:58 | 33.73587 | 126.17835 | 7000 ft | 239 kts | 261° |
| 2026-04-29 23:58 | 33.73347 | 126.15860 | 7007 ft | 238 kts | 261° |
| 2026-04-29 23:58 | 33.73117 | 126.13914 | 7003 ft | 238 kts | 261° |
| 2026-04-29 23:59 | 33.72787 | 126.11973 | 6987 ft | 237 kts | 248° |
| 2026-04-29 23:59 | 33.72093 | 126.10195 | 7008 ft | 236 kts | 243° |
| 2026-04-29 23:59 | 33.71375 | 126.08412 | 7007 ft | 238 kts | 244° |
| 2026-04-29 23:59 | 33.70664 | 126.06611 | 7010 ft | 241 kts | 244° |
| 2026-04-30 00:00 | 33.69949 | 126.04781 | 7009 ft | 242 kts | 244° |
| 2026-04-30 00:00 | 33.69154 | 126.03011 | 6986 ft | 242 kts | 232° |
| 2026-04-30 00:00 | 33.68057 | 126.01489 | 7000 ft | 241 kts | 226° |
| 2026-04-30 00:00 | 33.66928 | 126.00036 | 7002 ft | 241 kts | 226° |
| 2026-04-30 00:01 | 33.65795 | 125.98563 | 6997 ft | 241 kts | 227° |
| 2026-04-30 00:01 | 33.64666 | 125.97077 | 6999 ft | 240 kts | 227° |
| 2026-04-30 00:01 | 33.63477 | 125.95684 | 6989 ft | 239 kts | 215° |
| 2026-04-30 00:01 | 33.62072 | 125.94628 | 6997 ft | 238 kts | 210° |
| 2026-04-30 00:02 | 33.60631 | 125.93628 | 6995 ft | 238 kts | 210° |
| 2026-04-30 00:02 | 33.59205 | 125.92625 | 7001 ft | 238 kts | 210° |
| 2026-04-30 00:02 | 33.57778 | 125.91625 | 6989 ft | 238 kts | 205° |
| 2026-04-30 00:02 | 33.56173 | 125.91352 | 6869 ft | 235 kts | 168° |
| 2026-04-30 00:03 | 33.54757 | 125.92207 | 6607 ft | 235 kts | 139° |
| 2026-04-30 00:03 | 33.53759 | 125.93759 | 6299 ft | 237 kts | 118° |
| 2026-04-30 00:03 | 33.53062 | 125.95546 | 6044 ft | 236 kts | 113° |
| 2026-04-30 00:03 | 33.52431 | 125.97354 | 5792 ft | 234 kts | 112° |
| 2026-04-30 00:04 | 33.51809 | 125.99155 | 5550 ft | 233 kts | 112° |
| 2026-04-30 00:04 | 33.51189 | 126.00937 | 5315 ft | 231 kts | 112° |
| 2026-04-30 00:04 | 33.50568 | 126.02703 | 5150 ft | 230 kts | 112° |
| 2026-04-30 00:04 | 33.49944 | 126.04465 | 4925 ft | 230 kts | 112° |
| 2026-04-30 00:05 | 33.49327 | 126.06199 | 4795 ft | 227 kts | 112° |
| 2026-04-30 00:05 | 33.48704 | 126.07941 | 4623 ft | 229 kts | 112° |
| 2026-04-30 00:05 | 33.48080 | 126.09680 | 4567 ft | 226 kts | 112° |
| 2026-04-30 00:05 | 33.47459 | 126.11408 | 4358 ft | 226 kts | 112° |
| 2026-04-30 00:06 | 33.46838 | 126.13133 | 4183 ft | 224 kts | 111° |
| 2026-04-30 00:06 | 33.46223 | 126.14839 | 3917 ft | 223 kts | 112° |
| 2026-04-30 00:06 | 33.45610 | 126.16537 | 3678 ft | 221 kts | 112° |
| 2026-04-30 00:06 | 33.44998 | 126.18232 | 3459 ft | 219 kts | 112° |
| 2026-04-30 00:07 | 33.44409 | 126.19864 | 3324 ft | 215 kts | 111° |
| 2026-04-30 00:07 | 33.43813 | 126.21510 | 3249 ft | 215 kts | 111° |
| 2026-04-30 00:07 | 33.43218 | 126.23158 | 3176 ft | 217 kts | 111° |
| 2026-04-30 00:07 | 33.42613 | 126.24827 | 3105 ft | 219 kts | 111° |
| 2026-04-30 00:08 | 33.42017 | 126.26469 | 3011 ft | 211 kts | 111° |
| 2026-04-30 00:08 | 33.41446 | 126.28047 | 2933 ft | 203 kts | 109° |
| 2026-04-30 00:08 | 33.41348 | 126.29644 | 2792 ft | 192 kts | 69° |
| 2026-04-30 00:08 | 33.41926 | 126.31019 | 2676 ft | 180 kts | 64° |
| 2026-04-30 00:09 | 33.42471 | 126.32318 | 2516 ft | 168 kts | 62° |
| 2026-04-30 00:09 | 33.43026 | 126.33471 | 2381 ft | 156 kts | 60° |
| 2026-04-30 00:09 | 33.43578 | 126.34556 | 2233 ft | 151 kts | 59° |
| 2026-04-30 00:09 | 33.44132 | 126.35629 | 2108 ft | 153 kts | 59° |
| 2026-04-30 00:10 | 33.44690 | 126.36703 | 2023 ft | 150 kts | 59° |
| 2026-04-30 00:10 | 33.45234 | 126.37750 | 1905 ft | 147 kts | 59° |
| 2026-04-30 00:10 | 33.45770 | 126.38781 | 1730 ft | 147 kts | 58° |
| 2026-04-30 00:10 | 33.46320 | 126.39839 | 1517 ft | 151 kts | 59° |
| 2026-04-30 00:11 | 33.46865 | 126.40887 | 1289 ft | 148 kts | 58° |
| 2026-04-30 00:11 | 33.47388 | 126.41895 | 1102 ft | 141 kts | 58° |
| 2026-04-30 00:11 | 33.47924 | 126.42921 | 934 ft | 143 kts | 59° |
| 2026-04-30 00:11 | 33.48430 | 126.43895 | 686 ft | 132 kts | 60° |
| 2026-04-30 00:12 | 33.48902 | 126.44803 | 537 ft | 125 kts | 60° |
| 2026-04-30 00:12 | 33.49359 | 126.45675 | 394 ft | 121 kts | 58° |
| 2026-04-30 00:12 | 33.49813 | 126.46522 | 217 ft | 122 kts | 59° |
| 2026-04-30 00:12 | 33.50275 | 126.47402 | 94 ft | 120 kts | 58° |
| 2026-04-30 00:13 | 33.50612 | 126.48050 | 93 ft | 61 kts | 58° |
| 2026-04-30 00:13 | 33.50757 | 126.48334 | 92 ft | 34 kts | 59° |
| 2026-04-30 00:13 | 33.50862 | 126.48572 | 92 ft | 31 kts | 71° |
| 2026-04-30 00:13 | 33.50882 | 126.48817 | 90 ft | 27 kts | 103° |
| 2026-04-30 00:14 | 33.50802 | 126.48897 | 89 ft | 12 kts | 158° |
| 2026-04-30 00:14 | 33.50728 | 126.48939 | 91 ft | 12 kts | 154° |
| 2026-04-30 00:14 | 33.50654 | 126.48965 | 91 ft | 11 kts | 186° |
| 2026-04-30 00:14 | 33.50615 | 126.48985 | 90 ft | 0 kts | 147° |